Thursday, August 25, 2016
15:04 UTC
  |  Log In   |  Register Free
Airport Search:

Ryan Field Airport
(KRYN)

FAA data valid effective Jul 21 2016 - Sep 15 2016 (unless otherwise noted).

 
 
 
 
 
 
 
 
 
 
 
 
 
 
Summary: Ryan Field (RYN)

Weather Summary


METAR for RYN is not available. Closest METAR is for
METAR

METAR KRYN 251445Z 00000KT 10SM CLR 23/13 A3007

METAR KRYN 251345Z 00000KT 10SM CLR 21/13 A3006

METAR KRYN 251245Z 00000KT 10SM CLR 21/12 A3004

METAR KAVQ 251455Z 10007KT 10SM CLR 26/10 A3002 RMK AO2 T02570102

METAR KDMA 251458Z 20006KT 10SM CLR 25/13 A3006 RMK AO2 SLP135 T02530127 52012 $

METAR KTUS 251453Z 16007KT 10SM CLR 26/13 A3008 RMK AO2 SLP136 T02610128 52011

TAF for RYN is not available.
TAF

KTUS - TAF KTUS 251138Z 2512/2612 14007KT P6SM FEW140

KTUS - FM251600 24005KT P6SM FEW100

KTUS - FM252100 28008KT P6SM SCT100

KTUS - FM260300 22006KT P6SM FEW100

KTUS - FM260800 15006KT P6SM SKC =

KDMA - TAF KDMA 251300Z 2513/2619 20012KT 9999 FEW100 QNH2998INS

KDMA - BECMG 2520/2521 28010G15KT 9999 FEW100 QNH2993INS

KDMA - BECMG 2602/2603 VRB06KT 9999 BKN090 QNH2998INS

KDMA - BECMG 2616/2617 22010G15KT 9999 VCTS BKN100CB QNH2990INS TX34/2523Z TN20/2514Z =

GlobalAir.com is loading additional information.
 Current Weather at RYN
70.0 F° (21.0 C°)
Fair
North winds at 0.0 mph
Pressure:
30.06 in
Humidity:
60%
Wind:
Calm
Dew Point:
55.4 F° (13.0 C°)
Visibility:
10.00 mi
RYN NOAA Radar

Runway Summary

ID Dimensions Surface Instrument Approaches
06R/24L 75 ft x 5503 ft Asphalt, Good Condition ILS OR LOC RWY 06R
NDB/DME OR GPS RWY 06R
NDB/DME OR GPS RWY 06R
06L/24R 75 ft x 4900 ft Asphalt, Good Condition NDB/DME OR GPS RWY 06R
15/33 75 ft x 4000 ft Asphalt, Fair Condition NDB/DME OR GPS RWY 06R

Communications Summary


CTAF125.80
UNICOMN/A
ATISN/A
WX AWOS-3
RYAN GROUND118.2 [0600-2000]
RYAN TOWER125.8 [0600-2000]
TUCSON APPROACH128.5
TUCSON DEPARTURE128.5
CLEARANCE DELIVERYN/A

Terminal Procedures Summary


Airport Diagram

Approaches
Special Minimums

Closest Alternate Airports with Instrument Procedures

4AZ0 - Palm Valley Tucson - 11.9 nm NW from RYN

4AZ0 - Palm Valley Tucson - 11.9 nm NW from RYN

4AZ0 - Palm Valley Tucson - 11.9 nm NW from RYN

0AZ1 - Taylor Field - 12.2 nm NW from RYN

KTUS - Tucson International - 13.8 nm SE from RYN

KAVQ - Marana Regional - 18.7 nm NW from RYN

KOLS - Nogales International - 53.7 nm SE from RYN

KP08 - Coolidge Municipal - 56.8 nm NW from RYN

KFHU - Sierra Vista Municipal-Libby Aaf - 62 nm SE from RYN

KCGZ - Casa Grande Municipal - 66 nm NW from RYN

Find All Airport Services Find A Hotel Find A Rental Car Find A Golf Course Find A Restaurant $100 Hamburger



FBO's on the Field
FBO Company Facility Photos Services Transportation Aviation Fuel Prices: Prices include tax
Catering Weather Repair Courtesy Rental Type 100LL JetA JetA+ MOGAS 8087
 
Velocity Air Inc.

This FBO has not yet been rated
FS:Ascent
Last Updated: Aug-17
Login to update fuel prices
SS:
Contact Velocity Air Inc.More FBO Information
 
Add another FBO Facility Photos Catering Weather Repair Courtesy Rental Type 100LL JetA JetA+ MOGAS 8087
Services Transportation Aviation Fuel Prices: Prices include tax


model-print
model-print
model-print
model-print